Flight Track Log - Related Links

Times and Time Zones

All times are in EDT time to prevent confusion due to time zone crossing. See the KAL1338 flight status page for this flight to view local times or setup timezone preferences in your user account.

Time Position Orientation Groundspeed Altitude Reporting Facility
EDT Latitude Longitude Course Direction KTS MPH feet Rate Location/Type
Mon 05:09:00 AM 34.9956 127.5696 346° North  Level Estimated
Mon 05:10:00 AM 35.0735 127.5467 346° North  Level Estimated
Mon 05:11:00 AM 35.1514 127.5237 346° North  Level Estimated
Mon 05:12:00 AM 35.2293 127.5007 346° North  Level Estimated
Mon 05:13:00 AM 35.3072 127.4776 346° North  Level Estimated
Mon 05:14:00 AM 35.3851 127.4545 346° North  Level Estimated
Mon 05:15:00 AM 35.4630 127.4314 346° North  Level Estimated
Mon 05:16:00 AM 35.5409 127.4082 346° North  Level Estimated
Mon 05:17:00 AM 35.6188 127.3850 346° North  Level Estimated
Mon 05:18:00 AM 35.6966 127.3617 346° North  Level Estimated
Mon 05:19:00 AM 35.7745 127.3383 346° North  Level Estimated
Mon 05:20:00 AM 35.8524 127.3150 346° North  Level Estimated
Mon 05:21:00 AM 35.9302 127.2916 346° North  Level Estimated
Mon 05:22:00 AM 36.0081 127.2681 346° North  Level Estimated
Mon 05:23:00 AM 36.0673 127.2502 346° North  Level Estimated
Mon 05:24:00 AM 36.1265 127.2323 346° North  Level Estimated
Mon 05:25:00 AM 36.1858 127.2144 346° North  Level Estimated
Mon 05:26:00 AM 36.2450 127.1964 346° North  Level Estimated
Mon 05:27:00 AM 36.3042 127.1784 346° North  Level Estimated
Mon 05:28:00 AM 36.3634 127.1604 346° North  Level Estimated
Mon 05:29:00 AM 36.4227 127.1423 346° North  Level Estimated
Mon 05:30:00 AM 36.4819 127.1243 346° North  Level Estimated
Mon 05:31:00 AM 36.5411 127.1061 346° North  Level Estimated
Mon 05:32:00 AM 36.6003 127.0880 346° North  Level Estimated
Mon 05:33:00 AM 36.6595 127.0699 346° North  Level Estimated
Mon 05:34:00 AM 36.7187 127.0517 346° North  Level Estimated
Mon 05:35:00 AM 36.7779 127.0335 346° North  Level Estimated
Mon 05:36:00 AM 36.8371 127.0152 346° North  Level Estimated
Mon 05:37:00 AM 36.8963 126.9969 346° North  Level Estimated
Mon 05:38:00 AM 36.9555 126.9787 346° North  Level Estimated
Mon 05:39:00 AM 37.0147 126.9603 346° North  Level Estimated
Mon 05:40:00 AM 37.0739 126.9420 346° North  Level Estimated
Mon 05:41:00 AM 37.1330 126.9236 346° North  Level Estimated
Mon 05:42:00 AM 37.1922 126.9052 346° North  Level Estimated
Mon 05:43:00 AM 37.2514 126.8867 346° North  Level Estimated
Mon 05:44:00 AM 37.3106 126.8682 346° North  Level Estimated
Mon 05:45:00 AM 37.3698 126.8497 346° North  Level Estimated
Mon 05:46:00 AM 37.4289 126.8312 346° North  Level Estimated
Mon 05:47:00 AM 37.4881 126.8127 346° North  Level Estimated
Mon 05:48:00 AM 37.5473 126.7941 346° North  Level Estimated
Mon 05:49:00 AM 37.5583 126.7906 346° North  Level Estimated
Mon 05:50:00 AM 37.5583 126.7906 288° West  Level Estimated
Mon 05:51:00 AM 37.5583 126.7906 288° West  Level Estimated
Mon 05:52:00 AM 37.5583 126.7906 288° West  Level Estimated
Mon 05:53:00 AM 37.5583 126.7906 288° West  Level Estimated
Mon 05:54:00 AM 37.5583 126.7906 288° West  Level Estimated

Login

Don't have an account? Register now (free) for customized features, flight alerts, and more!